Time;durP1;ratioP1;P1;durP2;ratioP2;P2;SDS_P1;SDS_P2;PMS_P1;PMS_P2;Temp;Humidity;BMP_temperature;BMP_pressure;BME280_temperature;BME280_humidity;BME280_pressure;Samples;Min_cycle;Max_cycle;Signal;HPM_P1;HPM_P2
2023/11/17 00:00:11;;;;;;;3.00;2.37;;;10.10;90.40;;;;;;5053682;28;20976;-47
2023/11/17 00:02:41;;;;;;;5.00;3.23;;;10.10;90.40;;;;;;5057775;28;20465;-47
2023/11/17 00:05:11;;;;;;;4.03;3.03;;;10.10;90.40;;;;;;5061386;28;20462;-44
2023/11/17 00:07:40;;;;;;;2.70;2.10;;;10.10;90.40;;;;;;5062822;28;20478;-43
2023/11/17 00:10:09;;;;;;;3.93;2.93;;;10.10;90.40;;;;;;5060376;28;20467;-46
2023/11/17 00:12:37;;;;;;;3.63;2.47;;;10.10;90.40;;;;;;5055350;28;20821;-46
2023/11/17 00:15:11;;;;;;;3.23;2.53;;;10.10;90.40;;;;;;5061294;28;20455;-46
2023/11/17 00:17:41;;;;;;;3.63;2.70;;;10.10;90.40;;;;;;5057983;28;20466;-46
2023/11/17 00:20:13;;;;;;;2.87;2.53;;;10.10;90.40;;;;;;5056303;28;20475;-46
2023/11/17 00:22:41;;;;;;;3.87;2.50;;;10.10;90.90;;;;;;5062813;28;20461;-46
2023/11/17 00:25:09;;;;;;;3.10;2.67;;;10.10;90.40;;;;;;5059966;28;20452;-47
2023/11/17 00:27:37;;;;;;;4.13;2.57;;;10.10;90.40;;;;;;5055425;28;20955;-47
2023/11/17 00:30:08;;;;;;;3.00;2.60;;;10.10;90.40;;;;;;5059018;28;20494;-43
2023/11/17 00:32:39;;;;;;;3.50;2.70;;;10.10;90.40;;;;;;5054544;28;20466;-44
2023/11/17 00:35:09;;;;;;;5.00;2.90;;;10.10;90.40;;;;;;5062447;28;20454;-46
2023/11/17 00:37:39;;;;;;;2.93;2.63;;;10.10;90.40;;;;;;5058200;28;20587;-46
2023/11/17 00:40:11;;;;;;;3.67;3.30;;;10.10;90.40;;;;;;5053156;28;20844;-45
2023/11/17 00:42:39;;;;;;;2.93;2.13;;;10.10;90.40;;;;;;5054109;28;20442;-45
2023/11/17 00:45:13;;;;;;;3.10;2.40;;;10.10;90.40;;;;;;5054171;28;20463;-46
2023/11/17 00:47:44;;;;;;;3.37;2.77;;;10.10;90.40;;;;;;5066114;28;20634;-46
2023/11/17 00:50:16;;;;;;;3.73;2.40;;;10.10;90.40;;;;;;5058233;28;20879;-46
2023/11/17 00:52:45;;;;;;;3.10;2.67;;;10.10;90.40;;;;;;5055720;28;20419;-46
2023/11/17 00:55:14;;;;;;;3.83;2.53;;;10.10;90.40;;;;;;5058863;28;20463;-44
2023/11/17 00:57:45;;;;;;;5.07;3.13;;;10.10;90.40;;;;;;5056259;28;20509;-45
2023/11/17 01:00:14;;;;;;;3.83;2.50;;;10.10;90.40;;;;;;5054028;28;21059;-44
2023/11/17 01:02:43;;;;;;;4.17;2.60;;;10.10;90.40;;;;;;5058299;28;20810;-46
2023/11/17 01:05:14;;;;;;;3.27;2.60;;;10.10;90.40;;;;;;5066249;28;20505;-47
2023/11/17 01:07:42;;;;;;;2.70;2.20;;;10.10;90.40;;;;;;5058810;28;20466;-46
2023/11/17 01:10:12;;;;;;;3.33;2.53;;;10.10;90.40;;;;;;5054477;27;20976;-46
2023/11/17 01:12:40;;;;;;;3.60;2.20;;;10.10;90.40;;;;;;5055209;28;20816;-45
2023/11/17 01:15:10;;;;;;;2.90;2.40;;;10.10;90.40;;;;;;5060376;28;20463;-44
2023/11/17 01:17:38;;;;;;;3.00;2.23;;;10.10;90.40;;;;;;5060947;28;20458;-47
2023/11/17 01:20:09;;;;;;;2.30;2.00;;;10.10;90.40;;;;;;5057459;28;20635;-44
2023/11/17 01:22:40;;;;;;;3.70;2.53;;;10.10;90.40;;;;;;5061758;28;20446;-47
2023/11/17 01:25:08;;;;;;;3.30;2.27;;;10.10;90.40;;;;;;5058800;27;20476;-46
2023/11/17 01:27:40;;;;;;;3.07;2.00;;;10.10;90.40;;;;;;5054352;28;20560;-46
2023/11/17 01:30:09;;;;;;;4.13;2.23;;;10.10;90.40;;;;;;5060616;28;20831;-45
2023/11/17 01:32:37;;;;;;;4.07;2.43;;;10.10;90.40;;;;;;5055242;28;21046;-44
2023/11/17 01:35:06;;;;;;;2.53;2.10;;;10.10;90.40;;;;;;5055769;28;20467;-47
2023/11/17 01:37:35;;;;;;;3.67;2.53;;;10.10;90.40;;;;;;5058428;28;20481;-45
2023/11/17 01:40:05;;;;;;;4.03;2.63;;;10.10;90.40;;;;;;5060861;27;20476;-46
2023/11/17 01:42:33;;;;;;;3.00;2.13;;;10.10;90.40;;;;;;5057528;28;20426;-46
2023/11/17 01:45:07;;;;;;;3.90;2.40;;;10.10;90.40;;;;;;5057970;28;21116;-45
2023/11/17 01:47:36;;;;;;;2.93;2.33;;;10.10;90.40;;;;;;5057385;28;20463;-46
2023/11/17 01:50:11;;;;;;;2.50;2.27;;;10.10;90.40;;;;;;5059686;28;20481;-46
2023/11/17 01:52:42;;;;;;;3.47;2.70;;;10.10;90.40;;;;;;5054459;28;20430;-45
2023/11/17 01:55:15;;;;;;;3.50;2.67;;;10.10;90.40;;;;;;5060399;28;20829;-46
2023/11/17 01:57:44;;;;;;;4.83;2.93;;;10.10;90.40;;;;;;5060435;28;20883;-47
2023/11/17 02:00:15;;;;;;;3.10;2.40;;;10.10;90.40;;;;;;5061259;28;20471;-47
2023/11/17 02:02:47;;;;;;;4.80;2.50;;;10.00;90.30;;;;;;5067538;28;20438;-46
2023/11/17 02:05:20;;;;;;;3.20;2.30;;;10.00;90.30;;;;;;5057654;28;20546;-47
2023/11/17 02:08:04;;;;;;;3.90;2.50;;;10.10;90.40;;;;;;5060263;28;20978;-47
2023/11/17 02:10:39;;;;;;;3.13;2.60;;;10.10;90.40;;;;;;5056407;28;20490;-46
2023/11/17 02:13:13;;;;;;;6.37;2.90;;;10.10;90.40;;;;;;5054273;28;20438;-46
2023/11/17 02:15:44;;;;;;;2.80;2.03;;;10.10;90.40;;;;;;5063096;28;20564;-46
2023/11/17 02:18:15;;;;;;;2.60;2.13;;;10.00;90.30;;;;;;5057373;28;20479;-46
2023/11/17 02:20:45;;;;;;;2.90;2.40;;;10.00;90.30;;;;;;5053713;28;20992;-45
2023/11/17 02:23:16;;;;;;;2.90;2.53;;;10.00;90.30;;;;;;5053662;28;20442;-45
2023/11/17 02:25:59;;;;;;;3.90;2.80;;;10.10;90.40;;;;;;5058901;28;20459;-47
2023/11/17 02:28:36;;;;;;;3.87;2.60;;;10.10;90.40;;;;;;5058517;28;20446;-45
2023/11/17 02:31:17;;;;;;;3.57;2.73;;;10.00;90.30;;;;;;5053083;28;20523;-46
2023/11/17 02:33:49;;;;;;;2.90;2.40;;;10.10;90.40;;;;;;5063655;28;20442;-46
2023/11/17 02:36:19;;;;;;;2.97;2.40;;;10.00;90.30;;;;;;5058371;28;20470;-46
2023/11/17 02:38:56;;;;;;;2.80;2.50;;;10.00;90.30;;;;;;5056942;28;20445;-46
2023/11/17 02:41:32;;;;;;;4.70;3.70;;;10.00;90.30;;;;;;5058208;28;21021;-48
2023/11/17 02:44:12;;;;;;;3.50;2.37;;;10.00;90.30;;;;;;5063736;28;20422;-46
2023/11/17 02:46:44;;;;;;;4.23;3.00;;;10.00;90.30;;;;;;5053977;28;20454;-44
2023/11/17 02:49:22;;;;;;;4.93;3.90;;;10.00;90.30;;;;;;5053335;28;20833;-46
2023/11/17 02:51:51;;;;;;;3.67;2.40;;;10.00;90.30;;;;;;5060514;28;20454;-44
2023/11/17 02:54:23;;;;;;;2.70;2.50;;;10.00;90.40;;;;;;5056448;27;20453;-44
2023/11/17 02:56:53;;;;;;;2.77;1.70;;;10.00;90.30;;;;;;5054447;28;20453;-47
2023/11/17 02:59:22;;;;;;;3.33;2.43;;;10.00;90.30;;;;;;5055092;28;20439;-46
2023/11/17 03:01:52;;;;;;;3.73;2.90;;;10.00;90.30;;;;;;5056577;28;20482;-47
2023/11/17 03:04:20;;;;;;;3.27;2.60;;;10.00;90.30;;;;;;5055844;28;20510;-46
2023/11/17 03:06:51;;;;;;;2.80;2.50;;;10.00;90.30;;;;;;5057994;28;20450;-46
2023/11/17 03:09:22;;;;;;;3.63;2.53;;;10.00;90.30;;;;;;5064414;28;20526;-45
2023/11/17 03:11:51;;;;;;;4.17;2.70;;;10.00;90.30;;;;;;5066258;28;20434;-46
2023/11/17 03:14:24;;;;;;;3.20;2.40;;;10.00;90.30;;;;;;5060306;28;20425;-47
2023/11/17 03:16:58;;;;;;;4.57;3.10;;;10.00;90.30;;;;;;5063610;28;20554;-45
2023/11/17 03:19:27;;;;;;;3.47;2.80;;;10.00;90.30;;;;;;5062029;28;21210;-45
2023/11/17 03:21:56;;;;;;;3.80;2.50;;;10.00;90.30;;;;;;5058359;28;20457;-44
2023/11/17 03:24:26;;;;;;;4.63;2.87;;;10.00;90.30;;;;;;5059583;28;20510;-44
2023/11/17 03:26:57;;;;;;;3.70;3.17;;;10.00;90.30;;;;;;5058601;28;20472;-46
2023/11/17 03:29:27;;;;;;;2.90;2.50;;;10.00;90.20;;;;;;5056169;28;20435;-45
2023/11/17 03:31:57;;;;;;;4.13;3.23;;;10.00;90.20;;;;;;5058862;28;20426;-46
2023/11/17 03:34:29;;;;;;;4.00;3.00;;;10.00;90.30;;;;;;5061455;28;20972;-46
2023/11/17 03:37:00;;;;;;;3.40;2.80;;;10.00;90.30;;;;;;5059601;28;20550;-46
2023/11/17 03:39:30;;;;;;;2.93;2.20;;;10.00;90.20;;;;;;5064389;28;20664;-46
2023/11/17 03:42:00;;;;;;;3.60;2.80;;;10.00;90.30;;;;;;5056748;28;20548;-45
2023/11/17 03:44:28;;;;;;;4.37;2.80;;;10.00;90.30;;;;;;5059679;28;20814;-46
2023/11/17 03:46:59;;;;;;;3.63;2.63;;;10.00;90.30;;;;;;5062997;28;20458;-44
2023/11/17 03:49:27;;;;;;;3.30;2.80;;;10.00;90.30;;;;;;5058481;28;20450;-44
2023/11/17 03:51:56;;;;;;;4.63;2.90;;;10.00;90.20;;;;;;5061550;28;20450;-44
2023/11/17 03:54:25;;;;;;;3.90;3.10;;;10.00;90.20;;;;;;5059039;28;20489;-46
2023/11/17 03:56:54;;;;;;;4.90;3.27;;;10.00;90.30;;;;;;5071593;28;20461;-44
2023/11/17 03:59:23;;;;;;;4.10;2.60;;;10.00;90.30;;;;;;5060348;28;20435;-45
2023/11/17 04:01:51;;;;;;;4.43;2.57;;;10.00;90.30;;;;;;5060377;28;20463;-46
2023/11/17 04:04:20;;;;;;;4.33;3.60;;;10.00;90.30;;;;;;5064292;28;20446;-46
2023/11/17 04:06:49;;;;;;;3.20;2.43;;;10.00;90.20;;;;;;5065447;28;20466;-46
2023/11/17 04:09:20;;;;;;;3.30;2.60;;;10.00;90.30;;;;;;5060167;28;20530;-46
2023/11/17 04:11:51;;;;;;;3.23;2.50;;;10.00;90.30;;;;;;5070281;28;20430;-47
2023/11/17 04:14:22;;;;;;;3.53;2.97;;;10.00;90.20;;;;;;5064184;28;20443;-45
2023/11/17 04:16:51;;;;;;;4.50;3.40;;;10.00;90.30;;;;;;5057285;28;20994;-46
2023/11/17 04:19:21;;;;;;;5.20;3.40;;;10.00;90.20;;;;;;5062914;28;20441;-43
2023/11/17 04:21:49;;;;;;;3.40;2.73;;;10.00;90.30;;;;;;5058363;28;20490;-45
2023/11/17 04:24:18;;;;;;;4.83;3.20;;;10.00;90.30;;;;;;5058283;28;20504;-43
2023/11/17 04:26:46;;;;;;;4.03;2.93;;;10.00;90.30;;;;;;5057603;28;21030;-46
2023/11/17 04:29:15;;;;;;;4.30;3.10;;;10.00;90.20;;;;;;5059779;28;20862;-44
2023/11/17 04:31:43;;;;;;;3.40;2.97;;;10.00;90.30;;;;;;5058261;28;20456;-44
2023/11/17 04:34:12;;;;;;;3.60;2.60;;;10.00;90.30;;;;;;5057641;28;20475;-44
2023/11/17 04:36:42;;;;;;;3.80;2.93;;;10.00;90.20;;;;;;5056229;28;20525;-46
2023/11/17 04:39:17;;;;;;;4.10;3.23;;;10.00;90.30;;;;;;5061758;28;20420;-45
2023/11/17 04:41:46;;;;;;;4.10;2.83;;;10.00;90.20;;;;;;5062166;28;20515;-47
2023/11/17 04:44:15;;;;;;;3.23;2.53;;;10.00;90.30;;;;;;5058056;28;20941;-45
2023/11/17 04:46:43;;;;;;;6.00;3.40;;;10.00;90.20;;;;;;5055949;28;20872;-46
2023/11/17 04:49:12;;;;;;;3.53;2.83;;;10.00;90.30;;;;;;5054296;28;20542;-46
2023/11/17 04:51:47;;;;;;;3.80;3.10;;;10.00;90.20;;;;;;5055981;28;20458;-46
2023/11/17 04:54:15;;;;;;;3.73;3.17;;;10.00;90.20;;;;;;5066201;28;20452;-45
2023/11/17 04:56:43;;;;;;;4.27;3.10;;;10.00;90.20;;;;;;5062471;28;20987;-47
2023/11/17 04:59:11;;;;;;;4.10;2.87;;;10.00;90.20;;;;;;5060464;28;20960;-46
2023/11/17 05:01:40;;;;;;;4.73;3.40;;;9.90;90.60;;;;;;5059914;28;20569;-46
2023/11/17 05:04:09;;;;;;;3.83;2.50;;;10.00;90.30;;;;;;5063195;28;20443;-47
2023/11/17 05:06:37;;;;;;;4.30;3.17;;;9.90;90.60;;;;;;5059591;28;20474;-46
2023/11/17 05:09:10;;;;;;;6.10;3.63;;;9.90;90.60;;;;;;5059312;28;20509;-45
2023/11/17 05:11:39;;;;;;;3.73;2.87;;;9.90;90.60;;;;;;5058136;28;20451;-45
2023/11/17 05:14:07;;;;;;;3.40;2.97;;;9.90;90.60;;;;;;5067642;28;20438;-45
2023/11/17 05:16:37;;;;;;;4.80;3.20;;;9.90;90.60;;;;;;5060709;28;21028;-45
2023/11/17 05:19:06;;;;;;;5.43;3.73;;;9.90;90.60;;;;;;5063427;28;20823;-45
2023/11/17 05:21:34;;;;;;;4.80;3.70;;;9.90;91.10;;;;;;5053679;28;20494;-45
2023/11/17 05:24:03;;;;;;;4.23;3.27;;;9.90;91.10;;;;;;5058909;28;20810;-45
2023/11/17 05:26:33;;;;;;;4.27;3.23;;;9.90;90.60;;;;;;5060790;28;20472;-45
2023/11/17 05:29:02;;;;;;;4.80;3.57;;;9.90;90.60;;;;;;5055530;28;20953;-47
2023/11/17 05:31:30;;;;;;;4.23;3.43;;;10.00;90.20;;;;;;5059018;28;21012;-45
2023/11/17 05:33:58;;;;;;;4.20;3.17;;;9.90;91.10;;;;;;5062311;28;20846;-44
2023/11/17 05:36:26;;;;;;;5.70;4.10;;;9.90;90.60;;;;;;5063420;28;20570;-46
2023/11/17 05:38:55;;;;;;;5.27;3.70;;;9.90;90.60;;;;;;5063403;28;20869;-46
2023/11/17 05:41:25;;;;;;;5.37;3.70;;;9.90;90.60;;;;;;5061102;28;20467;-45
2023/11/17 05:43:55;;;;;;;5.53;4.07;;;9.90;90.60;;;;;;5058825;28;20429;-44
2023/11/17 05:46:24;;;;;;;6.17;3.30;;;9.90;90.60;;;;;;5054273;28;20469;-45
2023/11/17 05:48:53;;;;;;;4.60;3.37;;;9.90;90.60;;;;;;5062827;28;20414;-46
2023/11/17 05:51:22;;;;;;;6.10;3.50;;;9.90;90.60;;;;;;5054509;28;20517;-45
2023/11/17 05:53:51;;;;;;;4.27;3.33;;;9.90;90.60;;;;;;5059165;28;20426;-47
2023/11/17 05:56:19;;;;;;;6.30;4.27;;;9.90;90.60;;;;;;5057877;28;20505;-46
2023/11/17 05:58:48;;;;;;;3.90;3.30;;;9.90;90.60;;;;;;5056432;28;20541;-45
2023/11/17 06:01:18;;;;;;;4.10;2.93;;;9.90;90.60;;;;;;5053434;28;20470;-47
2023/11/17 06:03:49;;;;;;;3.97;3.57;;;9.90;90.60;;;;;;5063040;28;20474;-46
2023/11/17 06:06:18;;;;;;;4.63;3.40;;;9.90;90.60;;;;;;5054241;28;20473;-45
2023/11/17 06:08:46;;;;;;;5.00;3.50;;;9.90;90.60;;;;;;5062295;28;20432;-45
2023/11/17 06:11:14;;;;;;;5.63;3.63;;;9.90;90.60;;;;;;5055500;28;20968;-45
2023/11/17 06:13:42;;;;;;;5.23;4.00;;;9.90;90.60;;;;;;5055692;28;20606;-46
2023/11/17 06:16:17;;;;;;;5.10;3.70;;;9.90;90.60;;;;;;5063477;28;20472;-44
2023/11/17 06:18:50;;;;;;;7.43;4.30;;;9.90;90.60;;;;;;5057587;28;20447;-46
2023/11/17 06:21:18;;;;;;;6.60;3.87;;;9.90;90.60;;;;;;5053300;28;20447;-44
2023/11/17 06:23:46;;;;;;;5.97;4.10;;;9.90;90.60;;;;;;5056654;28;20494;-46
2023/11/17 06:26:14;;;;;;;6.70;4.43;;;9.90;90.60;;;;;;5058292;28;20501;-45
2023/11/17 06:28:42;;;;;;;10.23;7.70;;;9.90;90.60;;;;;;5060335;28;20430;-46
2023/11/17 06:31:11;;;;;;;5.67;4.33;;;9.90;90.70;;;;;;5055621;28;20485;-44
2023/11/17 06:33:41;;;;;;;5.37;4.87;;;9.90;90.70;;;;;;5061194;28;20787;-45
2023/11/17 06:36:11;;;;;;;9.90;6.07;;;9.90;90.70;;;;;;5054393;28;20466;-44
2023/11/17 06:38:42;;;;;;;8.30;5.77;;;9.90;90.70;;;;;;5059148;28;20442;-43
2023/11/17 06:41:10;;;;;;;4.97;3.97;;;9.90;90.70;;;;;;5053379;28;20450;-45
2023/11/17 06:43:41;;;;;;;5.23;4.70;;;9.90;90.70;;;;;;5055146;28;20502;-45
2023/11/17 06:46:09;;;;;;;5.83;4.60;;;9.90;90.60;;;;;;5054383;28;20470;-45
2023/11/17 06:48:38;;;;;;;4.87;3.90;;;9.90;90.70;;;;;;5053545;28;20784;-45
2023/11/17 06:51:07;;;;;;;5.23;3.87;;;9.90;90.70;;;;;;5059501;28;21011;-44
2023/11/17 06:53:35;;;;;;;5.43;3.97;;;9.90;90.60;;;;;;5056949;28;20431;-46
2023/11/17 06:56:06;;;;;;;4.77;3.53;;;9.90;90.60;;;;;;5055662;28;20520;-44
2023/11/17 06:58:34;;;;;;;5.40;4.33;;;9.80;90.60;;;;;;5054006;28;20501;-44
2023/11/17 07:01:03;;;;;;;4.97;4.47;;;9.90;90.60;;;;;;5057239;28;20457;-45
2023/11/17 07:03:31;;;;;;;7.13;5.93;;;9.90;90.70;;;;;;5057660;28;20995;-48
2023/11/17 07:06:00;;;;;;;6.20;4.80;;;9.90;90.70;;;;;;5061690;28;20474;-46
2023/11/17 07:08:29;;;;;;;8.37;5.43;;;9.80;90.60;;;;;;5058492;28;20465;-45
2023/11/17 07:10:58;;;;;;;5.17;4.47;;;9.80;90.60;;;;;;5063467;28;21037;-44
2023/11/17 07:13:27;;;;;;;6.47;5.10;;;9.90;90.60;;;;;;5059352;28;20948;-44
2023/11/17 07:15:55;;;;;;;6.80;5.20;;;9.80;90.60;;;;;;5061422;28;20479;-46
2023/11/17 07:18:23;;;;;;;7.43;5.50;;;9.80;90.70;;;;;;5055883;28;20446;-47
2023/11/17 07:20:52;;;;;;;5.70;5.10;;;9.80;90.60;;;;;;5052136;28;20504;-47
2023/11/17 07:23:20;;;;;;;5.80;4.80;;;9.80;90.60;;;;;;5058884;28;20471;-45
2023/11/17 07:25:50;;;;;;;7.37;4.70;;;9.90;90.70;;;;;;5056810;28;20455;-44
2023/11/17 07:28:18;;;;;;;4.57;4.07;;;9.80;90.60;;;;;;5062527;28;20458;-47
2023/11/17 07:30:47;;;;;;;5.60;4.10;;;9.80;90.60;;;;;;5056341;28;20879;-45
2023/11/17 07:33:18;;;;;;;6.10;4.17;;;9.80;90.60;;;;;;5065827;28;20438;-46
2023/11/17 07:35:46;;;;;;;5.20;4.10;;;9.80;90.60;;;;;;5065015;28;20473;-45
2023/11/17 07:38:14;;;;;;;5.93;5.33;;;9.80;90.60;;;;;;5059809;28;20443;-45
2023/11/17 07:40:42;;;;;;;6.63;4.77;;;9.80;90.60;;;;;;5053567;28;20558;-45
2023/11/17 07:43:12;;;;;;;6.70;4.27;;;9.80;90.60;;;;;;5058084;28;20463;-46
2023/11/17 07:45:40;;;;;;;6.83;4.63;;;9.80;90.60;;;;;;5054234;28;20493;-46
2023/11/17 07:48:08;;;;;;;5.23;4.50;;;9.80;90.70;;;;;;5060090;28;21022;-46
2023/11/17 07:50:39;;;;;;;8.53;7.17;;;9.80;90.60;;;;;;5063255;28;20462;-47
2023/11/17 07:53:08;;;;;;;8.80;7.00;;;9.80;90.70;;;;;;5064588;28;20430;-46
2023/11/17 07:55:36;;;;;;;6.13;4.73;;;9.80;90.70;;;;;;5062855;28;20458;-45
2023/11/17 07:58:05;;;;;;;5.47;3.70;;;9.80;90.70;;;;;;5060410;28;20476;-46
2023/11/17 08:00:35;;;;;;;6.70;4.70;;;9.80;90.70;;;;;;5069222;28;20473;-46
2023/11/17 08:03:04;;;;;;;6.53;4.87;;;9.80;90.70;;;;;;5057612;28;20477;-45
2023/11/17 08:05:33;;;;;;;5.40;3.93;;;9.80;90.70;;;;;;5057252;28;20812;-46
2023/11/17 08:08:01;;;;;;;7.00;5.20;;;9.80;90.70;;;;;;5062749;28;20464;-45
2023/11/17 08:10:29;;;;;;;6.77;4.90;;;9.80;90.80;;;;;;5056518;28;20475;-46
2023/11/17 08:12:58;;;;;;;9.10;7.10;;;9.80;90.80;;;;;;5063175;28;20499;-46
2023/11/17 08:15:31;;;;;;;5.83;4.37;;;9.80;90.80;;;;;;5056944;28;20455;-47
2023/11/17 08:18:03;;;;;;;8.60;6.33;;;9.80;90.80;;;;;;5064385;28;20469;-46
2023/11/17 08:20:32;;;;;;;10.60;7.50;;;9.80;90.80;;;;;;5055240;28;20497;-46
2023/11/17 08:23:00;;;;;;;6.67;5.27;;;9.80;90.90;;;;;;5056463;28;20488;-44
2023/11/17 08:25:29;;;;;;;7.70;6.13;;;9.80;90.90;;;;;;5064281;28;20531;-44
2023/11/17 08:27:58;;;;;;;6.20;5.07;;;9.80;90.90;;;;;;5065449;28;21014;-46
2023/11/17 08:30:26;;;;;;;7.40;5.20;;;9.80;90.80;;;;;;5057861;28;20645;-45
2023/11/17 08:33:14;;;;;;;8.60;6.73;;;9.80;90.80;;;;;;5064549;28;20446;-44
2023/11/17 08:35:42;;;;;;;9.00;6.17;;;9.80;90.90;;;;;;5065856;28;20467;-43
2023/11/17 08:38:11;;;;;;;8.13;5.93;;;9.80;91.00;;;;;;5057297;28;20488;-45
2023/11/17 08:40:39;;;;;;;8.70;6.60;;;9.80;90.90;;;;;;5056679;28;20474;-45
2023/11/17 08:43:07;;;;;;;6.70;4.70;;;9.80;90.90;;;;;;5058388;28;20468;-46
2023/11/17 08:45:35;;;;;;;5.13;4.40;;;9.80;90.90;;;;;;5060868;28;20838;-46
2023/11/17 08:48:03;;;;;;;6.70;5.30;;;9.80;91.00;;;;;;5061393;28;20554;-45
2023/11/17 08:50:33;;;;;;;7.87;6.20;;;9.80;90.90;;;;;;5058971;28;20754;-43
2023/11/17 08:53:01;;;;;;;7.70;5.03;;;9.80;90.90;;;;;;5062378;28;20431;-45
2023/11/17 08:55:29;;;;;;;6.53;5.43;;;9.80;90.90;;;;;;5060620;28;20519;-47
2023/11/17 08:57:58;;;;;;;8.27;5.10;;;9.80;90.80;;;;;;5059256;28;20490;-44
2023/11/17 09:00:26;;;;;;;5.97;4.70;;;9.80;90.80;;;;;;5058301;28;20471;-43
2023/11/17 09:02:54;;;;;;;5.70;4.43;;;9.80;90.90;;;;;;5057012;28;20591;-45
2023/11/17 09:05:23;;;;;;;5.47;4.47;;;9.80;90.90;;;;;;5056336;28;20460;-46
2023/11/17 09:07:53;;;;;;;7.20;5.30;;;9.80;90.80;;;;;;5059875;28;20461;-45
2023/11/17 09:10:26;;;;;;;8.07;5.70;;;9.80;90.80;;;;;;5058787;28;20544;-46
2023/11/17 09:12:54;;;;;;;9.13;6.60;;;9.80;91.00;;;;;;5059995;28;20433;-47
2023/11/17 09:15:24;;;;;;;6.70;4.90;;;9.70;91.00;;;;;;5057840;28;20566;-47
2023/11/17 09:17:52;;;;;;;6.90;4.73;;;9.80;91.50;;;;;;5059920;28;20514;-46
2023/11/17 09:20:23;;;;;;;6.70;5.20;;;9.80;90.90;;;;;;5053758;28;20561;-47
2023/11/17 09:22:54;;;;;;;6.23;5.00;;;9.70;90.90;;;;;;5058564;28;20443;-47
2023/11/17 09:25:24;;;;;;;7.00;4.00;;;9.80;91.00;;;;;;5051151;28;20479;-47
2023/11/17 09:27:56;;;;;;;6.50;4.57;;;9.80;90.90;;;;;;5058216;28;20557;-48
2023/11/17 09:30:28;;;;;;;9.70;5.97;;;9.70;90.80;;;;;;5056919;28;20467;-47
2023/11/17 09:32:58;;;;;;;7.27;5.30;;;9.80;91.00;;;;;;5069263;28;20458;-47
2023/11/17 09:35:27;;;;;;;6.63;5.43;;;9.70;90.90;;;;;;5049266;28;20588;-47
2023/11/17 09:37:58;;;;;;;8.03;6.70;;;9.70;91.00;;;;;;5065406;28;20537;-45
2023/11/17 09:40:29;;;;;;;6.53;4.80;;;9.70;91.00;;;;;;5056923;28;20467;-47
2023/11/17 09:43:00;;;;;;;9.43;6.57;;;9.70;91.00;;;;;;5057336;28;20450;-45
2023/11/17 09:45:30;;;;;;;19.20;12.23;;;9.70;91.30;;;;;;5058577;28;20486;-47
2023/11/17 09:48:04;;;;;;;13.67;10.27;;;9.70;94.20;;;;;;5058740;28;20553;-46
2023/11/17 09:50:35;;;;;;;13.27;10.10;;;9.70;93.60;;;;;;5054673;28;20891;-47
2023/11/17 09:53:05;;;;;;;15.83;12.07;;;9.70;93.10;;;;;;5059300;28;20443;-44
2023/11/17 09:55:40;;;;;;;14.87;10.10;;;9.70;93.00;;;;;;5061690;28;20458;-45
2023/11/17 09:58:11;;;;;;;17.50;11.50;;;9.70;92.90;;;;;;5057755;28;20454;-46
2023/11/17 10:00:43;;;;;;;10.60;8.73;;;9.70;92.80;;;;;;5059399;28;20466;-47
2023/11/17 10:03:13;;;;;;;13.70;9.67;;;9.80;92.90;;;;;;5059428;28;20452;-46
2023/11/17 10:05:43;;;;;;;16.50;9.53;;;9.80;92.90;;;;;;5056250;28;20474;-47
2023/11/17 10:08:16;;;;;;;12.03;9.20;;;9.80;92.80;;;;;;5056513;28;20508;-47
2023/11/17 10:10:46;;;;;;;13.33;9.33;;;9.80;92.70;;;;;;5056328;28;20459;-47
2023/11/17 10:13:16;;;;;;;11.37;8.63;;;9.80;92.70;;;;;;5055086;28;20458;-44
2023/11/17 10:15:50;;;;;;;11.90;7.80;;;9.80;92.80;;;;;;5056741;28;20505;-46
2023/11/17 10:18:25;;;;;;;11.90;8.23;;;9.80;92.80;;;;;;5055269;28;20504;-45
2023/11/17 10:20:57;;;;;;;12.47;9.23;;;9.80;93.00;;;;;;5060098;28;20466;-45
2023/11/17 10:23:28;;;;;;;12.00;7.80;;;9.80;92.70;;;;;;5055494;28;20420;-46
2023/11/17 10:25:57;;;;;;;9.63;8.13;;;9.80;92.70;;;;;;5058655;28;20499;-46
2023/11/17 10:28:27;;;;;;;10.30;7.83;;;9.90;92.80;;;;;;5056995;28;20442;-44
2023/11/17 10:31:01;;;;;;;10.73;7.30;;;9.80;92.80;;;;;;5057286;28;20470;-47
2023/11/17 10:33:33;;;;;;;9.73;7.13;;;9.80;92.90;;;;;;5064406;28;20781;-45
2023/11/17 10:36:05;;;;;;;11.00;7.67;;;9.80;92.70;;;;;;5062974;28;20461;-46
2023/11/17 10:38:35;;;;;;;9.27;6.83;;;9.80;92.50;;;;;;5054457;28;20481;-46
2023/11/17 10:41:17;;;;;;;8.57;7.07;;;9.80;92.60;;;;;;5062665;28;20458;-46
2023/11/17 10:43:48;;;;;;;10.50;6.83;;;9.80;92.60;;;;;;5068618;28;20480;-45
2023/11/17 10:46:20;;;;;;;7.33;5.43;;;9.90;92.50;;;;;;5063349;28;20501;-45
2023/11/17 10:48:50;;;;;;;6.67;5.13;;;9.80;92.50;;;;;;5062417;28;20431;-45
2023/11/17 10:51:19;;;;;;;8.00;6.60;;;9.80;92.30;;;;;;5055475;28;20895;-45
2023/11/17 10:56:41;;;;;;;7.97;6.10;;;9.90;92.20;;;;;;5047948;28;20552;-45
2023/11/17 10:59:15;;;;;;;8.30;5.67;;;9.90;92.10;;;;;;5046051;28;20712;-43
2023/11/17 11:01:45;;;;;;;10.60;5.67;;;9.90;92.10;;;;;;5045370;28;20467;-45
2023/11/17 11:04:17;;;;;;;6.97;5.30;;;9.90;92.10;;;;;;5044468;28;20440;-45
2023/11/17 11:06:46;;;;;;;7.20;5.80;;;9.90;92.20;;;;;;5044123;28;20479;-45
2023/11/17 11:09:17;;;;;;;6.70;5.47;;;9.90;92.00;;;;;;5046129;28;20855;-44
2023/11/17 11:11:50;;;;;;;6.60;4.70;;;9.90;92.10;;;;;;5046239;28;20895;-44
2023/11/17 11:14:20;;;;;;;7.87;5.27;;;9.90;92.00;;;;;;5043849;28;20530;-45
2023/11/17 11:16:49;;;;;;;6.20;4.97;;;9.90;92.00;;;;;;5039648;28;20521;-44
2023/11/17 11:19:19;;;;;;;6.90;5.13;;;9.90;92.00;;;;;;5051902;28;20440;-45
2023/11/17 11:22:00;;;;;;;6.37;4.40;;;9.90;91.80;;;;;;5042757;28;20479;-44
2023/11/17 11:24:33;;;;;;;6.23;4.90;;;9.90;91.70;;;;;;5042848;28;20467;-45
2023/11/17 11:27:09;;;;;;;6.23;5.00;;;9.90;91.70;;;;;;5043987;28;20445;-45
2023/11/17 11:29:42;;;;;;;5.80;4.10;;;9.90;91.80;;;;;;5040584;28;20547;-45
2023/11/17 11:32:13;;;;;;;6.20;4.67;;;9.90;91.80;;;;;;5040630;28;20470;-45
2023/11/17 11:34:43;;;;;;;5.37;4.20;;;9.90;91.70;;;;;;5043156;28;20429;-45
2023/11/17 11:37:11;;;;;;;5.07;3.97;;;9.90;91.60;;;;;;5038331;28;20458;-46
2023/11/17 11:39:41;;;;;;;5.50;4.67;;;9.90;91.70;;;;;;5032847;28;20503;-47
2023/11/17 11:42:11;;;;;;;5.37;4.27;;;9.90;91.60;;;;;;5043086;28;20445;-46
2023/11/17 11:44:40;;;;;;;5.20;4.20;;;9.90;91.50;;;;;;5043867;28;20440;-45
2023/11/17 11:47:10;;;;;;;7.07;3.87;;;9.90;91.50;;;;;;5031671;28;20541;-46
2023/11/17 11:49:38;;;;;;;7.30;4.50;;;9.90;91.50;;;;;;5031072;28;20451;-46
2023/11/17 11:52:13;;;;;;;6.80;5.00;;;9.90;91.80;;;;;;5046679;28;20774;-46
2023/11/17 11:54:41;;;;;;;5.53;4.10;;;9.90;91.60;;;;;;5040440;28;20455;-45
2023/11/17 11:57:28;;;;;;;5.50;4.40;;;9.90;91.50;;;;;;5049544;28;20482;-44
2023/11/17 12:00:12;;;;;;;4.93;3.90;;;9.90;91.40;;;;;;5050275;28;20474;-44
2023/11/17 12:02:53;;;;;;;4.60;3.23;;;9.90;91.40;;;;;;5046214;28;20426;-44
2023/11/17 12:05:29;;;;;;;4.73;4.10;;;9.90;91.30;;;;;;5045591;28;20463;-44
2023/11/17 12:07:58;;;;;;;3.90;3.50;;;10.00;91.00;;;;;;5033577;28;20840;-44
2023/11/17 12:10:35;;;;;;;4.20;3.53;;;10.00;90.90;;;;;;5024980;28;20497;-45
2023/11/17 12:13:07;;;;;;;5.63;4.10;;;9.90;91.10;;;;;;5031892;28;20446;-45
2023/11/17 12:15:35;;;;;;;3.47;3.13;;;10.00;90.70;;;;;;5027629;28;20546;-46
2023/11/17 12:18:06;;;;;;;5.10;3.77;;;10.00;90.70;;;;;;5035866;28;20462;-46
2023/11/17 12:20:40;;;;;;;4.60;3.33;;;10.00;90.70;;;;;;5028748;28;20577;-46
2023/11/17 12:23:08;;;;;;;4.63;3.30;;;10.00;90.70;;;;;;5029797;28;20878;-46
2023/11/17 12:25:38;;;;;;;3.40;3.10;;;10.00;90.60;;;;;;5030404;28;20569;-45
2023/11/17 12:28:12;;;;;;;5.80;3.90;;;10.00;90.60;;;;;;5031482;28;20547;-43
2023/11/17 12:30:42;;;;;;;4.30;3.83;;;10.00;90.60;;;;;;5031536;28;20464;-46
2023/11/17 12:33:11;;;;;;;5.10;3.23;;;10.00;90.60;;;;;;5031367;28;20455;-45
2023/11/17 12:35:39;;;;;;;6.60;4.27;;;10.00;90.70;;;;;;5028033;28;20469;-45
2023/11/17 12:38:13;;;;;;;4.80;3.90;;;10.00;91.00;;;;;;5033522;28;20869;-43
2023/11/17 12:40:42;;;;;;;4.20;3.47;;;10.00;90.80;;;;;;5024347;28;20545;-45
2023/11/17 12:43:12;;;;;;;4.67;3.80;;;10.00;90.70;;;;;;5033191;28;20444;-45
2023/11/17 12:45:41;;;;;;;8.27;6.50;;;10.00;90.80;;;;;;5028512;28;20468;-46
2023/11/17 12:48:12;;;;;;;5.93;4.93;;;10.00;91.30;;;;;;5031642;28;20463;-46
2023/11/17 12:50:41;;;;;;;5.60;4.33;;;10.00;91.20;;;;;;5028266;28;20464;-46
2023/11/17 12:53:09;;;;;;;6.27;4.87;;;10.00;91.10;;;;;;5033556;28;20436;-46
2023/11/17 12:55:47;;;;;;;6.13;5.17;;;10.00;91.10;;;;;;5029108;28;21008;-45
2023/11/17 12:58:19;;;;;;;5.73;5.00;;;10.00;91.00;;;;;;5031013;28;20444;-46
2023/11/17 13:00:49;;;;;;;6.20;5.00;;;10.00;91.00;;;;;;5020699;28;20579;-46
2023/11/17 13:03:19;;;;;;;4.97;4.10;;;9.90;91.40;;;;;;5031013;28;20432;-46
2023/11/17 13:05:53;;;;;;;6.33;5.10;;;9.90;91.40;;;;;;5030616;28;20464;-45
2023/11/17 13:08:21;;;;;;;4.57;4.10;;;9.90;91.40;;;;;;5030314;28;20440;-46